sensor_id;sensor_type;location;lat;lon;timestamp;P1;durP1;ratioP1;P2;durP2;ratioP2
21697;SDS011;11010;49.548;11.926;2023-01-01T00:00:18;14.37;;;6.70;;
21697;SDS011;11010;49.548;11.926;2023-01-01T00:02:45;14.73;;;5.47;;
21697;SDS011;11010;49.548;11.926;2023-01-01T00:05:12;12.50;;;5.67;;
21697;SDS011;11010;49.548;11.926;2023-01-01T00:07:40;11.77;;;4.97;;
21697;SDS011;11010;49.548;11.926;2023-01-01T00:10:09;10.93;;;4.37;;
21697;SDS011;11010;49.548;11.926;2023-01-01T00:12:55;11.63;;;4.27;;
21697;SDS011;11010;49.548;11.926;2023-01-01T00:15:23;13.00;;;4.63;;
21697;SDS011;11010;49.548;11.926;2023-01-01T00:17:51;12.47;;;5.07;;
21697;SDS011;11010;49.548;11.926;2023-01-01T00:20:19;11.07;;;4.63;;
21697;SDS011;11010;49.548;11.926;2023-01-01T00:22:46;10.87;;;4.50;;
21697;SDS011;11010;49.548;11.926;2023-01-01T00:25:22;10.97;;;4.27;;
21697;SDS011;11010;49.548;11.926;2023-01-01T00:27:50;11.13;;;4.20;;
21697;SDS011;11010;49.548;11.926;2023-01-01T00:30:18;11.63;;;4.63;;
21697;SDS011;11010;49.548;11.926;2023-01-01T00:32:45;12.93;;;4.83;;
21697;SDS011;11010;49.548;11.926;2023-01-01T00:35:21;11.93;;;4.67;;
21697;SDS011;11010;49.548;11.926;2023-01-01T00:37:48;12.53;;;4.77;;
21697;SDS011;11010;49.548;11.926;2023-01-01T00:40:16;13.47;;;4.53;;
21697;SDS011;11010;49.548;11.926;2023-01-01T00:42:44;14.27;;;5.00;;
21697;SDS011;11010;49.548;11.926;2023-01-01T00:45:12;12.90;;;5.13;;
21697;SDS011;11010;49.548;11.926;2023-01-01T00:47:47;12.87;;;4.80;;
21697;SDS011;11010;49.548;11.926;2023-01-01T00:50:14;11.60;;;4.63;;
21697;SDS011;11010;49.548;11.926;2023-01-01T00:52:42;12.87;;;4.80;;
21697;SDS011;11010;49.548;11.926;2023-01-01T00:55:10;13.13;;;4.87;;
21697;SDS011;11010;49.548;11.926;2023-01-01T00:57:38;13.60;;;5.37;;
21697;SDS011;11010;49.548;11.926;2023-01-01T01:00:06;13.50;;;5.70;;
21697;SDS011;11010;49.548;11.926;2023-01-01T01:02:34;13.00;;;5.20;;
21697;SDS011;11010;49.548;11.926;2023-01-01T01:05:02;13.33;;;4.90;;
21697;SDS011;11010;49.548;11.926;2023-01-01T01:07:36;12.23;;;5.30;;
21697;SDS011;11010;49.548;11.926;2023-01-01T01:10:05;13.37;;;5.13;;
21697;SDS011;11010;49.548;11.926;2023-01-01T01:12:34;12.97;;;5.00;;
21697;SDS011;11010;49.548;11.926;2023-01-01T01:15:02;14.00;;;5.07;;
21697;SDS011;11010;49.548;11.926;2023-01-01T01:17:30;13.10;;;5.03;;
21697;SDS011;11010;49.548;11.926;2023-01-01T01:19:58;11.93;;;4.87;;
21697;SDS011;11010;49.548;11.926;2023-01-01T01:22:25;12.73;;;4.90;;
21697;SDS011;11010;49.548;11.926;2023-01-01T01:24:54;12.13;;;4.93;;
21697;SDS011;11010;49.548;11.926;2023-01-01T01:27:22;13.00;;;4.93;;
21697;SDS011;11010;49.548;11.926;2023-01-01T01:29:50;10.87;;;4.20;;
21697;SDS011;11010;49.548;11.926;2023-01-01T01:32:18;10.87;;;4.63;;
21697;SDS011;11010;49.548;11.926;2023-01-01T01:34:45;11.77;;;4.83;;
21697;SDS011;11010;49.548;11.926;2023-01-01T01:37:13;11.83;;;5.13;;
21697;SDS011;11010;49.548;11.926;2023-01-01T01:39:40;14.33;;;5.20;;
21697;SDS011;11010;49.548;11.926;2023-01-01T01:42:11;11.40;;;4.63;;
21697;SDS011;11010;49.548;11.926;2023-01-01T01:47:19;16.10;;;8.03;;
21697;SDS011;11010;49.548;11.926;2023-01-01T01:49:48;15.17;;;7.00;;
21697;SDS011;11010;49.548;11.926;2023-01-01T01:52:18;15.47;;;6.83;;
21697;SDS011;11010;49.548;11.926;2023-01-01T01:54:45;15.83;;;6.33;;
21697;SDS011;11010;49.548;11.926;2023-01-01T01:57:13;15.70;;;6.97;;
21697;SDS011;11010;49.548;11.926;2023-01-01T01:59:41;14.93;;;7.27;;
21697;SDS011;11010;49.548;11.926;2023-01-01T02:04:56;11.93;;;5.83;;
21697;SDS011;11010;49.548;11.926;2023-01-01T02:07:24;12.03;;;5.40;;
21697;SDS011;11010;49.548;11.926;2023-01-01T02:09:52;15.20;;;5.80;;
21697;SDS011;11010;49.548;11.926;2023-01-01T02:12:20;14.03;;;5.77;;
21697;SDS011;11010;49.548;11.926;2023-01-01T02:14:47;13.17;;;5.23;;
21697;SDS011;11010;49.548;11.926;2023-01-01T02:17:22;13.17;;;5.30;;
21697;SDS011;11010;49.548;11.926;2023-01-01T02:19:54;13.13;;;5.07;;
21697;SDS011;11010;49.548;11.926;2023-01-01T02:23:03;12.63;;;5.43;;
21697;SDS011;11010;49.548;11.926;2023-01-01T02:26:25;12.87;;;5.03;;
21697;SDS011;11010;49.548;11.926;2023-01-01T02:30:47;12.77;;;5.50;;
21697;SDS011;11010;49.548;11.926;2023-01-01T02:33:16;13.33;;;5.50;;
21697;SDS011;11010;49.548;11.926;2023-01-01T02:35:45;14.80;;;5.93;;
21697;SDS011;11010;49.548;11.926;2023-01-01T02:38:29;14.13;;;6.07;;
21697;SDS011;11010;49.548;11.926;2023-01-01T02:41:13;16.47;;;6.77;;
21697;SDS011;11010;49.548;11.926;2023-01-01T02:43:42;14.47;;;5.60;;
21697;SDS011;11010;49.548;11.926;2023-01-01T02:46:09;14.77;;;6.37;;
21697;SDS011;11010;49.548;11.926;2023-01-01T02:48:41;14.60;;;5.80;;
21697;SDS011;11010;49.548;11.926;2023-01-01T02:58:58;14.30;;;6.33;;
21697;SDS011;11010;49.548;11.926;2023-01-01T03:02:32;16.27;;;6.40;;
21697;SDS011;11010;49.548;11.926;2023-01-01T03:05:42;14.10;;;5.53;;
21697;SDS011;11010;49.548;11.926;2023-01-01T03:10:42;17.63;;;7.07;;
21697;SDS011;11010;49.548;11.926;2023-01-01T03:13:17;19.17;;;7.83;;
21697;SDS011;11010;49.548;11.926;2023-01-01T03:16:07;16.30;;;7.10;;
21697;SDS011;11010;49.548;11.926;2023-01-01T03:21:17;16.73;;;6.70;;
21697;SDS011;11010;49.548;11.926;2023-01-01T03:23:48;18.67;;;6.73;;
21697;SDS011;11010;49.548;11.926;2023-01-01T03:26:20;14.67;;;6.00;;
21697;SDS011;11010;49.548;11.926;2023-01-01T03:28:52;15.00;;;6.70;;
21697;SDS011;11010;49.548;11.926;2023-01-01T03:31:21;14.17;;;6.50;;
21697;SDS011;11010;49.548;11.926;2023-01-01T03:33:54;14.47;;;6.23;;
21697;SDS011;11010;49.548;11.926;2023-01-01T03:36:23;13.10;;;6.03;;
21697;SDS011;11010;49.548;11.926;2023-01-01T03:39:00;15.13;;;6.50;;
21697;SDS011;11010;49.548;11.926;2023-01-01T03:41:39;14.33;;;5.97;;
21697;SDS011;11010;49.548;11.926;2023-01-01T03:44:11;15.17;;;6.40;;
21697;SDS011;11010;49.548;11.926;2023-01-01T03:46:39;14.93;;;6.10;;
21697;SDS011;11010;49.548;11.926;2023-01-01T03:49:08;12.87;;;6.00;;
21697;SDS011;11010;49.548;11.926;2023-01-01T03:54:07;15.87;;;6.27;;
21697;SDS011;11010;49.548;11.926;2023-01-01T03:56:39;16.40;;;6.60;;
21697;SDS011;11010;49.548;11.926;2023-01-01T04:01:46;14.17;;;6.43;;
21697;SDS011;11010;49.548;11.926;2023-01-01T04:04:15;19.87;;;8.00;;
21697;SDS011;11010;49.548;11.926;2023-01-01T04:06:43;16.97;;;7.27;;
21697;SDS011;11010;49.548;11.926;2023-01-01T04:09:11;17.23;;;7.50;;
21697;SDS011;11010;49.548;11.926;2023-01-01T04:11:42;17.20;;;7.23;;
21697;SDS011;11010;49.548;11.926;2023-01-01T04:21:51;17.97;;;7.30;;
21697;SDS011;11010;49.548;11.926;2023-01-01T04:24:18;17.30;;;7.37;;
21697;SDS011;11010;49.548;11.926;2023-01-01T04:26:46;16.10;;;7.37;;
21697;SDS011;11010;49.548;11.926;2023-01-01T04:29:14;16.03;;;7.23;;
21697;SDS011;11010;49.548;11.926;2023-01-01T04:31:42;16.83;;;7.77;;
21697;SDS011;11010;49.548;11.926;2023-01-01T04:34:09;14.33;;;6.80;;
21697;SDS011;11010;49.548;11.926;2023-01-01T04:36:37;18.63;;;7.97;;
21697;SDS011;11010;49.548;11.926;2023-01-01T04:39:04;19.23;;;8.53;;
21697;SDS011;11010;49.548;11.926;2023-01-01T04:41:32;19.80;;;8.57;;
21697;SDS011;11010;49.548;11.926;2023-01-01T04:43:59;18.17;;;7.63;;
21697;SDS011;11010;49.548;11.926;2023-01-01T04:46:27;19.10;;;9.03;;
21697;SDS011;11010;49.548;11.926;2023-01-01T04:48:54;18.70;;;8.57;;
21697;SDS011;11010;49.548;11.926;2023-01-01T04:51:22;19.47;;;8.73;;
21697;SDS011;11010;49.548;11.926;2023-01-01T04:53:49;17.97;;;7.87;;
21697;SDS011;11010;49.548;11.926;2023-01-01T04:56:18;20.37;;;8.93;;
21697;SDS011;11010;49.548;11.926;2023-01-01T04:58:46;16.83;;;7.90;;
21697;SDS011;11010;49.548;11.926;2023-01-01T05:01:18;18.00;;;8.10;;
21697;SDS011;11010;49.548;11.926;2023-01-01T05:03:46;20.13;;;8.30;;
21697;SDS011;11010;49.548;11.926;2023-01-01T05:06:14;20.60;;;8.73;;
21697;SDS011;11010;49.548;11.926;2023-01-01T05:08:42;19.70;;;8.53;;
21697;SDS011;11010;49.548;11.926;2023-01-01T05:13:42;20.73;;;8.47;;
21697;SDS011;11010;49.548;11.926;2023-01-01T05:16:10;19.67;;;8.50;;
21697;SDS011;11010;49.548;11.926;2023-01-01T05:18:38;17.03;;;7.67;;
21697;SDS011;11010;49.548;11.926;2023-01-01T05:21:07;16.63;;;7.70;;
21697;SDS011;11010;49.548;11.926;2023-01-01T05:23:35;18.93;;;8.13;;
21697;SDS011;11010;49.548;11.926;2023-01-01T05:26:09;18.73;;;8.50;;
21697;SDS011;11010;49.548;11.926;2023-01-01T05:28:37;19.53;;;8.47;;
21697;SDS011;11010;49.548;11.926;2023-01-01T05:31:09;19.23;;;8.30;;
21697;SDS011;11010;49.548;11.926;2023-01-01T05:33:37;18.40;;;7.90;;
21697;SDS011;11010;49.548;11.926;2023-01-01T05:36:05;18.17;;;7.90;;
21697;SDS011;11010;49.548;11.926;2023-01-01T05:38:34;18.73;;;8.07;;
21697;SDS011;11010;49.548;11.926;2023-01-01T05:41:08;16.33;;;7.50;;
21697;SDS011;11010;49.548;11.926;2023-01-01T05:43:36;18.10;;;7.73;;
21697;SDS011;11010;49.548;11.926;2023-01-01T05:46:04;17.33;;;7.80;;
21697;SDS011;11010;49.548;11.926;2023-01-01T05:48:33;18.07;;;7.70;;
21697;SDS011;11010;49.548;11.926;2023-01-01T05:51:06;19.07;;;7.83;;
21697;SDS011;11010;49.548;11.926;2023-01-01T05:53:34;19.07;;;7.83;;
21697;SDS011;11010;49.548;11.926;2023-01-01T05:56:01;18.47;;;7.30;;
21697;SDS011;11010;49.548;11.926;2023-01-01T05:58:30;17.40;;;7.10;;
21697;SDS011;11010;49.548;11.926;2023-01-01T06:03:41;17.33;;;7.57;;
21697;SDS011;11010;49.548;11.926;2023-01-01T06:06:09;16.47;;;7.53;;
21697;SDS011;11010;49.548;11.926;2023-01-01T06:08:37;16.80;;;7.10;;
21697;SDS011;11010;49.548;11.926;2023-01-01T06:11:05;17.67;;;7.80;;
21697;SDS011;11010;49.548;11.926;2023-01-01T06:13:33;18.20;;;7.60;;
21697;SDS011;11010;49.548;11.926;2023-01-01T06:16:01;29.50;;;12.20;;
21697;SDS011;11010;49.548;11.926;2023-01-01T06:18:30;19.07;;;8.17;;
21697;SDS011;11010;49.548;11.926;2023-01-01T06:23:31;19.43;;;8.47;;
21697;SDS011;11010;49.548;11.926;2023-01-01T06:28:34;17.83;;;7.83;;
21697;SDS011;11010;49.548;11.926;2023-01-01T06:31:02;18.60;;;7.83;;
21697;SDS011;11010;49.548;11.926;2023-01-01T06:33:30;17.57;;;8.17;;
21697;SDS011;11010;49.548;11.926;2023-01-01T06:36:01;18.50;;;8.10;;
21697;SDS011;11010;49.548;11.926;2023-01-01T06:38:32;19.47;;;8.30;;
21697;SDS011;11010;49.548;11.926;2023-01-01T06:41:01;18.73;;;8.37;;
21697;SDS011;11010;49.548;11.926;2023-01-01T06:43:30;17.10;;;8.27;;
21697;SDS011;11010;49.548;11.926;2023-01-01T06:46:02;19.10;;;8.40;;
21697;SDS011;11010;49.548;11.926;2023-01-01T06:48:30;18.83;;;9.10;;
21697;SDS011;11010;49.548;11.926;2023-01-01T06:51:03;17.27;;;9.33;;
21697;SDS011;11010;49.548;11.926;2023-01-01T06:53:30;20.10;;;8.80;;
21697;SDS011;11010;49.548;11.926;2023-01-01T06:55:58;18.37;;;7.97;;
21697;SDS011;11010;49.548;11.926;2023-01-01T06:58:25;19.20;;;8.67;;
21697;SDS011;11010;49.548;11.926;2023-01-01T07:00:53;20.83;;;8.70;;
21697;SDS011;11010;49.548;11.926;2023-01-01T07:03:20;19.43;;;8.20;;
21697;SDS011;11010;49.548;11.926;2023-01-01T07:05:47;18.57;;;8.70;;
21697;SDS011;11010;49.548;11.926;2023-01-01T07:08:15;16.17;;;8.07;;
21697;SDS011;11010;49.548;11.926;2023-01-01T07:10:42;18.47;;;8.33;;
21697;SDS011;11010;49.548;11.926;2023-01-01T07:13:10;21.03;;;8.40;;
21697;SDS011;11010;49.548;11.926;2023-01-01T07:15:37;17.93;;;8.63;;
21697;SDS011;11010;49.548;11.926;2023-01-01T07:18:04;18.53;;;8.47;;
21697;SDS011;11010;49.548;11.926;2023-01-01T07:20:32;19.93;;;8.33;;
21697;SDS011;11010;49.548;11.926;2023-01-01T07:22:59;18.23;;;8.43;;
21697;SDS011;11010;49.548;11.926;2023-01-01T07:25:30;21.40;;;9.27;;
21697;SDS011;11010;49.548;11.926;2023-01-01T07:27:57;19.83;;;9.27;;
21697;SDS011;11010;49.548;11.926;2023-01-01T07:30:24;19.03;;;8.73;;
21697;SDS011;11010;49.548;11.926;2023-01-01T07:32:55;23.10;;;9.83;;
21697;SDS011;11010;49.548;11.926;2023-01-01T07:35:22;20.80;;;9.83;;
21697;SDS011;11010;49.548;11.926;2023-01-01T07:37:50;22.47;;;10.03;;
21697;SDS011;11010;49.548;11.926;2023-01-01T07:40:17;24.53;;;11.43;;
21697;SDS011;11010;49.548;11.926;2023-01-01T07:42:44;23.67;;;10.13;;
21697;SDS011;11010;49.548;11.926;2023-01-01T07:45:12;27.70;;;11.03;;
21697;SDS011;11010;49.548;11.926;2023-01-01T07:47:39;26.70;;;10.97;;
21697;SDS011;11010;49.548;11.926;2023-01-01T07:50:10;22.30;;;10.10;;
21697;SDS011;11010;49.548;11.926;2023-01-01T07:52:41;24.57;;;10.57;;
21697;SDS011;11010;49.548;11.926;2023-01-01T07:55:15;23.70;;;10.50;;
21697;SDS011;11010;49.548;11.926;2023-01-01T07:57:43;25.60;;;12.00;;
21697;SDS011;11010;49.548;11.926;2023-01-01T08:00:11;27.53;;;11.47;;
21697;SDS011;11010;49.548;11.926;2023-01-01T08:02:40;24.73;;;10.53;;
21697;SDS011;11010;49.548;11.926;2023-01-01T08:05:08;25.63;;;11.10;;
21697;SDS011;11010;49.548;11.926;2023-01-01T08:07:36;27.07;;;11.70;;
21697;SDS011;11010;49.548;11.926;2023-01-01T08:10:04;27.47;;;11.97;;
21697;SDS011;11010;49.548;11.926;2023-01-01T08:12:32;23.47;;;10.80;;
21697;SDS011;11010;49.548;11.926;2023-01-01T08:14:59;24.50;;;10.63;;
21697;SDS011;11010;49.548;11.926;2023-01-01T08:17:27;22.17;;;10.40;;
21697;SDS011;11010;49.548;11.926;2023-01-01T08:19:54;23.47;;;11.23;;
21697;SDS011;11010;49.548;11.926;2023-01-01T08:22:21;25.77;;;11.47;;
21697;SDS011;11010;49.548;11.926;2023-01-01T08:24:49;24.20;;;11.20;;
21697;SDS011;11010;49.548;11.926;2023-01-01T08:27:16;24.87;;;10.67;;
21697;SDS011;11010;49.548;11.926;2023-01-01T08:29:44;23.63;;;10.77;;
21697;SDS011;11010;49.548;11.926;2023-01-01T08:32:11;24.17;;;11.27;;
21697;SDS011;11010;49.548;11.926;2023-01-01T08:34:39;25.17;;;11.37;;
21697;SDS011;11010;49.548;11.926;2023-01-01T08:37:10;22.17;;;11.10;;
21697;SDS011;11010;49.548;11.926;2023-01-01T08:39:38;22.50;;;11.13;;
21697;SDS011;11010;49.548;11.926;2023-01-01T08:42:05;22.17;;;10.33;;
21697;SDS011;11010;49.548;11.926;2023-01-01T08:44:37;24.83;;;11.07;;
21697;SDS011;11010;49.548;11.926;2023-01-01T08:47:05;24.23;;;10.47;;
21697;SDS011;11010;49.548;11.926;2023-01-01T08:49:32;24.90;;;11.60;;
21697;SDS011;11010;49.548;11.926;2023-01-01T08:52:00;21.70;;;10.20;;
21697;SDS011;11010;49.548;11.926;2023-01-01T08:54:27;23.40;;;11.40;;
21697;SDS011;11010;49.548;11.926;2023-01-01T08:56:54;24.57;;;11.33;;
21697;SDS011;11010;49.548;11.926;2023-01-01T08:59:22;26.03;;;11.83;;
21697;SDS011;11010;49.548;11.926;2023-01-01T09:01:50;24.60;;;10.87;;
21697;SDS011;11010;49.548;11.926;2023-01-01T09:04:18;25.03;;;11.23;;
21697;SDS011;11010;49.548;11.926;2023-01-01T09:06:46;26.47;;;11.70;;
21697;SDS011;11010;49.548;11.926;2023-01-01T09:09:13;26.07;;;11.83;;
21697;SDS011;11010;49.548;11.926;2023-01-01T09:11:48;25.17;;;11.50;;
21697;SDS011;11010;49.548;11.926;2023-01-01T09:14:16;25.53;;;11.67;;
21697;SDS011;11010;49.548;11.926;2023-01-01T09:16:43;25.50;;;12.00;;
21697;SDS011;11010;49.548;11.926;2023-01-01T09:19:11;26.63;;;12.10;;
21697;SDS011;11010;49.548;11.926;2023-01-01T09:21:38;27.83;;;13.13;;
21697;SDS011;11010;49.548;11.926;2023-01-01T09:24:06;25.83;;;11.83;;
21697;SDS011;11010;49.548;11.926;2023-01-01T09:26:33;25.57;;;11.50;;
21697;SDS011;11010;49.548;11.926;2023-01-01T09:29:00;22.37;;;10.67;;
21697;SDS011;11010;49.548;11.926;2023-01-01T09:31:28;24.77;;;11.27;;
21697;SDS011;11010;49.548;11.926;2023-01-01T09:33:58;22.97;;;10.43;;
21697;SDS011;11010;49.548;11.926;2023-01-01T09:36:27;22.43;;;10.67;;
21697;SDS011;11010;49.548;11.926;2023-01-01T09:38:55;22.30;;;10.40;;
21697;SDS011;11010;49.548;11.926;2023-01-01T09:46:29;27.83;;;11.33;;
21697;SDS011;11010;49.548;11.926;2023-01-01T09:48:59;21.73;;;10.67;;
21697;SDS011;11010;49.548;11.926;2023-01-01T09:51:29;23.63;;;10.63;;
21697;SDS011;11010;49.548;11.926;2023-01-01T09:56:28;24.73;;;9.80;;
21697;SDS011;11010;49.548;11.926;2023-01-01T09:58:56;23.40;;;10.10;;
21697;SDS011;11010;49.548;11.926;2023-01-01T10:06:40;21.03;;;9.27;;
21697;SDS011;11010;49.548;11.926;2023-01-01T10:15:30;23.60;;;10.23;;
21697;SDS011;11010;49.548;11.926;2023-01-01T10:17:37;24.23;;;11.03;;
21697;SDS011;11010;49.548;11.926;2023-01-01T10:20:16;27.67;;;11.50;;
21697;SDS011;11010;49.548;11.926;2023-01-01T10:22:45;25.33;;;11.70;;
21697;SDS011;11010;49.548;11.926;2023-01-01T10:25:20;28.30;;;11.07;;
21697;SDS011;11010;49.548;11.926;2023-01-01T10:27:50;24.40;;;10.47;;
21697;SDS011;11010;49.548;11.926;2023-01-01T10:30:25;27.40;;;12.00;;
21697;SDS011;11010;49.548;11.926;2023-01-01T10:32:53;25.20;;;11.13;;
21697;SDS011;11010;49.548;11.926;2023-01-01T10:37:59;23.63;;;11.00;;
21697;SDS011;11010;49.548;11.926;2023-01-01T10:40:28;27.00;;;11.53;;
21697;SDS011;11010;49.548;11.926;2023-01-01T10:42:56;25.40;;;11.03;;
21697;SDS011;11010;49.548;11.926;2023-01-01T10:50:41;24.63;;;10.83;;
21697;SDS011;11010;49.548;11.926;2023-01-01T10:56:01;26.07;;;11.37;;
21697;SDS011;11010;49.548;11.926;2023-01-01T10:58:36;24.50;;;10.80;;
21697;SDS011;11010;49.548;11.926;2023-01-01T11:01:06;24.97;;;10.87;;
21697;SDS011;11010;49.548;11.926;2023-01-01T11:03:34;23.23;;;10.43;;
21697;SDS011;11010;49.548;11.926;2023-01-01T11:06:15;23.50;;;10.60;;
21697;SDS011;11010;49.548;11.926;2023-01-01T11:08:50;23.93;;;10.60;;
21697;SDS011;11010;49.548;11.926;2023-01-01T11:11:20;23.70;;;10.93;;
21697;SDS011;11010;49.548;11.926;2023-01-01T11:13:49;24.87;;;10.73;;
21697;SDS011;11010;49.548;11.926;2023-01-01T11:16:17;22.33;;;10.67;;
21697;SDS011;11010;49.548;11.926;2023-01-01T11:18:44;21.90;;;10.40;;
21697;SDS011;11010;49.548;11.926;2023-01-01T11:21:17;24.77;;;11.00;;
21697;SDS011;11010;49.548;11.926;2023-01-01T11:23:45;23.47;;;10.53;;
21697;SDS011;11010;49.548;11.926;2023-01-01T11:28:40;25.77;;;11.17;;
21697;SDS011;11010;49.548;11.926;2023-01-01T11:31:20;22.33;;;10.53;;
21697;SDS011;11010;49.548;11.926;2023-01-01T11:33:51;22.03;;;10.17;;
21697;SDS011;11010;49.548;11.926;2023-01-01T11:36:28;21.07;;;9.90;;
21697;SDS011;11010;49.548;11.926;2023-01-01T11:39:05;23.07;;;10.13;;
21697;SDS011;11010;49.548;11.926;2023-01-01T11:41:43;23.60;;;10.83;;
21697;SDS011;11010;49.548;11.926;2023-01-01T11:44:12;22.50;;;10.10;;
21697;SDS011;11010;49.548;11.926;2023-01-01T11:46:43;24.23;;;11.30;;
21697;SDS011;11010;49.548;11.926;2023-01-01T11:49:12;22.67;;;10.40;;
21697;SDS011;11010;49.548;11.926;2023-01-01T11:51:40;20.43;;;9.70;;
21697;SDS011;11010;49.548;11.926;2023-01-01T11:54:50;23.50;;;10.37;;
21697;SDS011;11010;49.548;11.926;2023-01-01T11:57:12;23.30;;;10.50;;
21697;SDS011;11010;49.548;11.926;2023-01-01T11:59:42;22.13;;;10.00;;
21697;SDS011;11010;49.548;11.926;2023-01-01T12:02:13;21.30;;;10.13;;
21697;SDS011;11010;49.548;11.926;2023-01-01T12:04:46;23.10;;;9.37;;
21697;SDS011;11010;49.548;11.926;2023-01-01T12:07:15;24.10;;;10.40;;
21697;SDS011;11010;49.548;11.926;2023-01-01T12:10:00;23.50;;;11.10;;
21697;SDS011;11010;49.548;11.926;2023-01-01T12:12:37;22.67;;;9.97;;
21697;SDS011;11010;49.548;11.926;2023-01-01T12:15:16;22.77;;;10.40;;
21697;SDS011;11010;49.548;11.926;2023-01-01T12:17:49;20.70;;;10.50;;
21697;SDS011;11010;49.548;11.926;2023-01-01T12:20:21;19.70;;;9.63;;
21697;SDS011;11010;49.548;11.926;2023-01-01T12:22:49;23.50;;;10.90;;
21697;SDS011;11010;49.548;11.926;2023-01-01T12:25:17;21.43;;;10.80;;
21697;SDS011;11010;49.548;11.926;2023-01-01T12:30:19;25.00;;;10.87;;
21697;SDS011;11010;49.548;11.926;2023-01-01T12:49:14;23.70;;;11.17;;
21697;SDS011;11010;49.548;11.926;2023-01-01T12:59:31;26.07;;;11.37;;
21697;SDS011;11010;49.548;11.926;2023-01-01T13:02:00;22.43;;;11.47;;
21697;SDS011;11010;49.548;11.926;2023-01-01T13:04:28;26.10;;;11.77;;
21697;SDS011;11010;49.548;11.926;2023-01-01T13:06:57;24.50;;;11.43;;
21697;SDS011;11010;49.548;11.926;2023-01-01T13:09:30;23.90;;;12.17;;
21697;SDS011;11010;49.548;11.926;2023-01-01T13:12:06;24.23;;;12.13;;
21697;SDS011;11010;49.548;11.926;2023-01-01T13:14:41;24.47;;;12.23;;
21697;SDS011;11010;49.548;11.926;2023-01-01T13:19:45;25.70;;;11.80;;
21697;SDS011;11010;49.548;11.926;2023-01-01T13:25:03;26.53;;;11.93;;
21697;SDS011;11010;49.548;11.926;2023-01-01T13:38:47;25.23;;;12.03;;
21697;SDS011;11010;49.548;11.926;2023-01-01T13:46:33;26.17;;;10.80;;
21697;SDS011;11010;49.548;11.926;2023-01-01T13:54:45;19.40;;;7.83;;
21697;SDS011;11010;49.548;11.926;2023-01-01T14:02:39;20.60;;;8.67;;
21697;SDS011;11010;49.548;11.926;2023-01-01T14:07:48;21.77;;;9.73;;
21697;SDS011;11010;49.548;11.926;2023-01-01T14:12:45;22.00;;;10.23;;
21697;SDS011;11010;49.548;11.926;2023-01-01T14:15:14;24.80;;;10.07;;
21697;SDS011;11010;49.548;11.926;2023-01-01T14:17:42;21.20;;;9.70;;
21697;SDS011;11010;49.548;11.926;2023-01-01T14:20:13;22.40;;;9.43;;
21697;SDS011;11010;49.548;11.926;2023-01-01T14:22:42;22.50;;;10.47;;
21697;SDS011;11010;49.548;11.926;2023-01-01T14:25:14;26.23;;;11.77;;
21697;SDS011;11010;49.548;11.926;2023-01-01T14:27:42;31.03;;;14.37;;
21697;SDS011;11010;49.548;11.926;2023-01-01T14:30:16;26.33;;;12.00;;
21697;SDS011;11010;49.548;11.926;2023-01-01T14:32:53;23.83;;;11.20;;
21697;SDS011;11010;49.548;11.926;2023-01-01T14:35:21;26.00;;;11.80;;
21697;SDS011;11010;49.548;11.926;2023-01-01T14:37:48;25.63;;;11.77;;
21697;SDS011;11010;49.548;11.926;2023-01-01T14:42:44;25.80;;;11.90;;
21697;SDS011;11010;49.548;11.926;2023-01-01T14:45:13;24.57;;;11.50;;
21697;SDS011;11010;49.548;11.926;2023-01-01T14:47:41;23.70;;;11.10;;
21697;SDS011;11010;49.548;11.926;2023-01-01T14:50:21;25.70;;;11.83;;
21697;SDS011;11010;49.548;11.926;2023-01-01T14:52:54;26.47;;;12.70;;
21697;SDS011;11010;49.548;11.926;2023-01-01T14:55:22;26.57;;;11.87;;
21697;SDS011;11010;49.548;11.926;2023-01-01T14:57:54;22.50;;;10.57;;
21697;SDS011;11010;49.548;11.926;2023-01-01T15:00:23;24.47;;;11.77;;
21697;SDS011;11010;49.548;11.926;2023-01-01T15:02:51;39.90;;;18.47;;
21697;SDS011;11010;49.548;11.926;2023-01-01T15:07:58;23.47;;;11.70;;
21697;SDS011;11010;49.548;11.926;2023-01-01T15:10:26;27.90;;;12.63;;
21697;SDS011;11010;49.548;11.926;2023-01-01T15:12:54;24.30;;;12.33;;
21697;SDS011;11010;49.548;11.926;2023-01-01T15:16:13;23.90;;;11.57;;
21697;SDS011;11010;49.548;11.926;2023-01-01T15:20:59;27.50;;;11.80;;
21697;SDS011;11010;49.548;11.926;2023-01-01T15:23:27;25.60;;;11.40;;
21697;SDS011;11010;49.548;11.926;2023-01-01T15:25:54;23.00;;;11.13;;
21697;SDS011;11010;49.548;11.926;2023-01-01T15:28:22;22.60;;;11.03;;
21697;SDS011;11010;49.548;11.926;2023-01-01T15:30:55;25.03;;;11.73;;
21697;SDS011;11010;49.548;11.926;2023-01-01T15:33:23;24.23;;;11.67;;
21697;SDS011;11010;49.548;11.926;2023-01-01T15:35:52;27.77;;;11.80;;
21697;SDS011;11010;49.548;11.926;2023-01-01T15:38:26;22.73;;;11.60;;
21697;SDS011;11010;49.548;11.926;2023-01-01T15:40:59;23.83;;;11.93;;
21697;SDS011;11010;49.548;11.926;2023-01-01T15:43:27;24.13;;;11.47;;
21697;SDS011;11010;49.548;11.926;2023-01-01T15:45:59;21.60;;;11.07;;
21697;SDS011;11010;49.548;11.926;2023-01-01T15:48:44;25.13;;;11.37;;
21697;SDS011;11010;49.548;11.926;2023-01-01T15:56:13;24.00;;;10.87;;
21697;SDS011;11010;49.548;11.926;2023-01-01T16:01:20;23.37;;;10.77;;
21697;SDS011;11010;49.548;11.926;2023-01-01T16:03:49;24.03;;;11.17;;
21697;SDS011;11010;49.548;11.926;2023-01-01T16:06:19;22.93;;;10.87;;
21697;SDS011;11010;49.548;11.926;2023-01-01T16:08:47;24.93;;;11.43;;
21697;SDS011;11010;49.548;11.926;2023-01-01T16:11:15;35.97;;;16.60;;
21697;SDS011;11010;49.548;11.926;2023-01-01T16:13:42;30.90;;;14.93;;
21697;SDS011;11010;49.548;11.926;2023-01-01T16:16:23;25.30;;;11.93;;
21697;SDS011;11010;49.548;11.926;2023-01-01T16:18:52;26.43;;;12.60;;
21697;SDS011;11010;49.548;11.926;2023-01-01T16:21:20;24.73;;;12.40;;
21697;SDS011;11010;49.548;11.926;2023-01-01T16:23:48;25.87;;;12.47;;
21697;SDS011;11010;49.548;11.926;2023-01-01T16:26:16;25.77;;;11.57;;
21697;SDS011;11010;49.548;11.926;2023-01-01T16:28:43;24.37;;;11.83;;
21697;SDS011;11010;49.548;11.926;2023-01-01T16:31:14;25.87;;;12.00;;
21697;SDS011;11010;49.548;11.926;2023-01-01T16:33:43;24.73;;;11.53;;
21697;SDS011;11010;49.548;11.926;2023-01-01T16:36:11;24.13;;;11.20;;
21697;SDS011;11010;49.548;11.926;2023-01-01T16:38:38;23.00;;;11.33;;
21697;SDS011;11010;49.548;11.926;2023-01-01T16:41:09;24.33;;;12.47;;
21697;SDS011;11010;49.548;11.926;2023-01-01T16:43:38;24.27;;;11.77;;
21697;SDS011;11010;49.548;11.926;2023-01-01T16:46:07;21.93;;;11.53;;
21697;SDS011;11010;49.548;11.926;2023-01-01T16:48:39;29.80;;;12.20;;
21697;SDS011;11010;49.548;11.926;2023-01-01T16:51:08;23.40;;;12.07;;
21697;SDS011;11010;49.548;11.926;2023-01-01T16:53:41;27.10;;;12.30;;
21697;SDS011;11010;49.548;11.926;2023-01-01T16:56:10;27.07;;;11.43;;
21697;SDS011;11010;49.548;11.926;2023-01-01T16:58:38;23.80;;;11.17;;
21697;SDS011;11010;49.548;11.926;2023-01-01T17:01:25;25.13;;;11.83;;
21697;SDS011;11010;49.548;11.926;2023-01-01T17:03:52;25.60;;;11.57;;
21697;SDS011;11010;49.548;11.926;2023-01-01T17:06:20;23.43;;;11.00;;
21697;SDS011;11010;49.548;11.926;2023-01-01T17:08:47;22.03;;;10.23;;